Time;durP1;ratioP1;P1;durP2;ratioP2;P2;SDS_P1;SDS_P2;PMS_P1;PMS_P2;Temp;Humidity;BMP_temperature;BMP_pressure;BME280_temperature;BME280_humidity;BME280_pressure;Samples;Min_cycle;Max_cycle;Signal;HPM_P1;HPM_P2
2023/06/08 00:01:08;;;;;;;;;21.00;19.00;;;;;23.14;38.78;100964.48;112168;1256;20143;-76
2023/06/08 00:03:45;;;;;;;;;19.00;19.00;;;;;23.11;38.95;100969.45;112193;1248;22322;-74
2023/06/08 00:06:15;;;;;;;;;19.00;19.00;;;;;23.00;39.28;100971.47;112144;1263;18935;-74
2023/06/08 00:08:43;;;;;;;;;21.00;21.00;;;;;22.88;39.69;100973.80;112153;1264;19725;-74
2023/06/08 00:11:11;;;;;;;;;21.00;21.00;;;;;22.73;39.75;100974.73;112175;1264;19713;-76
2023/06/08 00:13:38;;;;;;;;;23.00;22.50;;;;;22.84;39.76;100968.52;112164;1256;18578;-74
2023/06/08 00:16:06;;;;;;;;;28.00;25.50;;;;;22.93;39.59;100969.02;112146;1263;20353;-74
2023/06/08 00:18:36;;;;;;;;;24.00;24.00;;;;;22.90;39.44;100973.13;112147;1264;20684;-75
2023/06/08 00:21:03;;;;;;;;;24.50;21.00;;;;;22.68;39.65;100975.73;112136;1264;18523;-75
2023/06/08 00:23:31;;;;;;;;;21.50;21.00;;;;;22.68;39.80;100973.58;112153;1264;18721;-76
2023/06/08 00:25:58;;;;;;;;;22.00;21.00;;;;;22.83;39.44;100971.75;112155;1248;20725;-75
2023/06/08 00:28:26;;;;;;;;;22.00;21.50;;;;;22.98;39.11;100967.60;112144;1263;20217;-75
2023/06/08 00:30:53;;;;;;;;;22.50;22.00;;;;;22.92;39.38;100968.40;112152;1264;18935;-76
2023/06/08 00:33:20;;;;;;;;;23.50;22.00;;;;;22.92;39.43;100973.98;112191;1263;19369;-76
2023/06/08 00:35:48;;;;;;;;;22.00;21.00;;;;;23.07;39.25;100972.48;112174;1256;21625;-74
2023/06/08 00:38:15;;;;;;;;;23.00;22.00;;;;;23.17;39.00;100965.17;112171;1264;19775;-73
2023/06/08 00:40:43;;;;;;;;;22.00;22.00;;;;;23.05;39.16;100965.02;112149;1263;19407;-70
2023/06/08 00:43:10;;;;;;;;;25.50;23.00;;;;;23.05;39.31;100971.38;112130;1256;18954;-70
2023/06/08 00:45:41;;;;;;;;;21.00;21.00;;;;;23.17;39.14;100970.67;112164;1264;18714;-73
2023/06/08 00:48:08;;;;;;;;;23.00;23.00;;;;;23.16;39.28;100971.16;112147;1263;20659;-73
2023/06/08 00:50:35;;;;;;;;;23.00;22.00;;;;;23.05;39.51;100967.59;112144;1248;20026;-73
2023/06/08 00:53:03;;;;;;;;;29.00;26.00;;;;;23.01;39.45;100965.00;112178;1248;21518;-71
2023/06/08 00:55:33;;;;;;;;;25.00;22.00;;;;;23.02;39.64;100965.98;111873;1263;381784;-74
2023/06/08 00:58:00;;;;;;;;;22.50;22.50;;;;;23.09;39.51;100969.64;112129;1264;20272;-70
2023/06/08 01:00:28;;;;;;;;;25.00;22.00;;;;;23.09;39.41;100968.38;112166;1263;18729;-71
2023/06/08 01:02:56;;;;;;;;;25.00;23.00;;;;;23.16;39.39;100972.77;112139;1264;19338;-71
2023/06/08 01:05:23;;;;;;;;;27.00;22.00;;;;;23.21;39.50;100972.66;112124;1263;19917;-71
2023/06/08 01:07:51;;;;;;;;;27.00;25.00;;;;;23.20;39.29;100971.61;112141;1264;18783;-71
2023/06/08 01:10:18;;;;;;;;;26.00;25.00;;;;;23.13;39.59;100970.08;112134;1263;20645;-75
2023/06/08 01:12:45;;;;;;;;;29.00;26.50;;;;;22.95;39.94;100968.65;112156;1248;21198;-73
2023/06/08 01:15:13;;;;;;;;;27.00;25.50;;;;;22.96;39.96;100972.12;112161;1247;21182;-73
2023/06/08 01:17:40;;;;;;;;;25.50;25.50;;;;;22.92;40.24;100974.32;112134;1263;21248;-71
2023/06/08 01:20:09;;;;;;;;;24.00;23.00;;;;;22.93;40.22;100967.44;112165;1247;18593;-71
2023/06/08 01:22:36;;;;;;;;;23.00;23.00;;;;;22.92;40.25;100969.70;112144;1248;20509;-70
2023/06/08 01:25:04;;;;;;;;;29.00;28.00;;;;;22.75;40.66;100973.33;112137;1263;20709;-70
2023/06/08 01:27:36;;;;;;;;;26.00;23.00;;;;;22.66;40.99;100969.20;112147;1248;21337;-70
2023/06/08 01:30:04;;;;;;;;;25.00;23.00;;;;;22.63;41.30;100971.61;112106;1263;20044;-70
2023/06/08 01:32:31;;;;;;;;;26.00;26.00;;;;;22.77;41.13;100972.11;112132;1248;20765;-71
2023/06/08 01:34:59;;;;;;;;;23.50;22.00;;;;;22.74;41.23;100970.45;112124;1263;18563;-71
2023/06/08 01:37:26;;;;;;;;;25.00;24.00;;;;;22.70;41.47;100969.00;112136;1264;18609;-73
2023/06/08 01:39:55;;;;;;;;;26.50;22.00;;;;;22.82;41.22;100967.69;112146;1248;20802;-72
2023/06/08 01:42:22;;;;;;;;;26.00;26.00;;;;;22.87;41.21;100963.23;112143;1263;18843;-70
2023/06/08 01:44:50;;;;;;;;;28.00;26.00;;;;;22.66;41.74;100964.78;112123;1263;19082;-70
2023/06/08 01:47:17;;;;;;;;;26.00;24.50;;;;;22.50;42.01;100968.71;112150;1248;19374;-70
2023/06/08 01:49:44;;;;;;;;;28.00;25.50;;;;;22.59;42.02;100969.83;112140;1248;20112;-70
2023/06/08 01:52:12;;;;;;;;;28.00;26.00;;;;;22.58;42.26;100967.46;112124;1256;18737;-70
2023/06/08 01:54:39;;;;;;;;;27.67;25.00;;;;;22.49;42.46;100971.66;112116;1248;21919;-70
2023/06/08 01:57:08;;;;;;;;;30.50;27.00;;;;;22.52;42.47;100971.46;112159;1248;20015;-72
2023/06/08 01:59:35;;;;;;;;;24.67;24.33;;;;;22.53;42.37;100972.41;112130;1263;20073;-71
2023/06/08 02:02:02;;;;;;;;;28.67;26.00;;;;;22.46;42.44;100975.85;112128;1248;20802;-71
2023/06/08 02:04:30;;;;;;;;;29.00;28.00;;;;;22.39;42.77;100979.92;112125;1263;18744;-70
2023/06/08 02:06:58;;;;;;;;;30.00;26.50;;;;;22.35;42.91;100981.90;112135;1263;18680;-70
2023/06/08 02:09:25;;;;;;;;;24.50;24.00;;;;;22.30;43.15;100977.02;112123;1264;19326;-69
2023/06/08 02:11:53;;;;;;;;;24.50;23.50;;;;;22.33;43.14;100975.13;112133;1263;20211;-71
2023/06/08 02:14:20;;;;;;;;;32.00;29.00;;;;;22.44;43.10;100980.94;112117;1264;21231;-71
2023/06/08 02:16:48;;;;;;;;;35.67;30.00;;;;;22.49;43.02;100983.42;112123;1248;20747;-71
2023/06/08 02:19:16;;;;;;;;;30.50;27.50;;;;;22.44;43.16;100988.84;112136;1263;18939;-71
2023/06/08 02:21:44;;;;;;;;;29.00;28.00;;;;;22.29;43.31;100989.95;112127;1248;20185;-71
2023/06/08 02:24:11;;;;;;;;;33.00;31.00;;;;;22.28;43.70;100988.66;112153;1248;20558;-71
2023/06/08 02:26:39;;;;;;;;;28.00;28.00;;;;;22.29;43.80;100985.88;112147;1248;21314;-71
2023/06/08 02:29:06;;;;;;;;;26.00;25.00;;;;;22.41;43.39;100988.44;112130;1263;20032;-72
2023/06/08 02:31:34;;;;;;;;;29.00;28.00;;;;;22.41;43.34;100987.48;112139;1263;19614;-70
2023/06/08 02:34:01;;;;;;;;;30.00;29.00;;;;;22.25;43.56;100985.55;112149;1257;18626;-72
2023/06/08 02:36:31;;;;;;;;;34.33;31.00;;;;;22.15;43.92;100992.00;112129;1263;18687;-70
2023/06/08 02:38:59;;;;;;;;;28.00;28.00;;;;;22.23;43.85;100988.02;112127;1248;21924;-70
2023/06/08 02:41:27;;;;;;;;;31.00;29.50;;;;;22.31;43.51;100987.46;112157;1257;18761;-70
2023/06/08 02:43:54;;;;;;;;;29.50;28.50;;;;;22.36;43.30;100985.55;112125;1249;20084;-70
2023/06/08 02:46:21;;;;;;;;;39.00;36.00;;;;;22.46;43.18;100989.30;112135;1263;20649;-70
2023/06/08 02:48:50;;;;;;;;;36.00;32.00;;;;;22.47;43.22;100984.81;112130;1248;20076;-70
2023/06/08 02:51:19;;;;;;;;;29.50;29.00;;;;;22.31;43.50;100985.44;112146;1263;18725;-70
2023/06/08 02:53:46;;;;;;;;;32.50;31.00;;;;;22.31;43.62;100987.21;112117;1256;19335;-70
2023/06/08 02:56:13;;;;;;;;;28.50;28.00;;;;;22.43;43.57;100989.63;112124;1263;21402;-70
2023/06/08 02:58:46;;;;;;;;;33.00;32.00;;;;;22.48;43.64;100988.32;112165;1248;20313;-70
2023/06/08 03:01:15;;;;;;;;;32.00;31.00;;;;;22.42;43.61;100990.41;112136;1256;21291;-71
2023/06/08 03:03:42;;;;;;;;;36.00;35.00;;;;;22.42;43.88;100992.49;112153;1263;18616;-71
2023/06/08 03:06:10;;;;;;;;;32.00;31.50;;;;;22.44;44.05;100994.05;112136;1248;20308;-71
2023/06/08 03:08:37;;;;;;;;;32.00;29.00;;;;;22.43;43.88;100992.42;112156;1264;20810;-71
2023/06/08 03:11:05;;;;;;;;;32.00;32.00;;;;;22.39;44.08;100998.50;112153;1263;18580;-71
2023/06/08 03:13:32;;;;;;;;;29.00;29.00;;;;;22.29;44.51;100996.34;112138;1264;19070;-71
2023/06/08 03:16:00;;;;;;;;;36.00;31.00;;;;;22.33;44.52;100999.86;112152;1264;19685;-71
2023/06/08 03:18:27;;;;;;;;;35.00;33.00;;;;;22.26;44.77;100998.42;112138;1263;20285;-71
2023/06/08 03:20:54;;;;;;;;;32.00;31.00;;;;;22.18;44.94;100999.45;112117;1263;20193;-71
2023/06/08 03:23:22;;;;;;;;;36.00;35.00;;;;;22.30;44.70;101003.20;112149;1263;19353;-71
2023/06/08 03:25:49;;;;;;;;;34.50;31.50;;;;;22.39;44.54;101004.46;112140;1263;18804;-71
2023/06/08 03:28:17;;;;;;;;;33.50;32.00;;;;;22.46;44.63;101001.90;112149;1256;20588;-71
2023/06/08 03:30:44;;;;;;;;;32.00;31.00;;;;;22.37;44.77;101005.95;112138;1248;20704;-71
2023/06/08 03:33:12;;;;;;;;;32.00;31.00;;;;;22.37;44.80;101004.96;112150;1247;20070;-71
2023/06/08 03:35:39;;;;;;;;;35.00;31.00;;;;;22.44;44.68;101006.57;112158;1248;20022;-71
2023/06/08 03:38:07;;;;;;;;;26.00;26.00;;;;;22.47;44.79;101003.97;112140;1263;20576;-71
2023/06/08 03:40:34;;;;;;;;;32.33;30.33;;;;;22.39;45.08;101002.63;112169;1247;18544;-71
2023/06/08 03:43:01;;;;;;;;;31.00;30.00;;;;;22.50;44.80;101003.86;112142;1248;20100;-71
2023/06/08 03:45:30;;;;;;;;;32.00;32.00;;;;;22.55;44.89;101003.17;112172;1251;21130;-71
2023/06/08 03:47:57;;;;;;;;;62.00;52.00;;;;;22.53;44.83;101003.59;112157;1248;20048;-71
2023/06/08 03:50:24;;;;;;;;;44.00;39.00;;;;;22.36;45.51;101005.07;112148;1248;20115;-71
2023/06/08 03:52:52;;;;;;;;;38.00;36.50;;;;;22.05;46.24;101007.23;112128;1263;21938;-71
2023/06/08 03:55:21;;;;;;;;;36.00;32.00;;;;;22.16;45.98;101007.80;112148;1248;20258;-71
2023/06/08 03:57:48;;;;;;;;;41.00;38.00;;;;;22.03;46.53;101004.70;112148;1264;20416;-70
2023/06/08 04:00:16;;;;;;;;;39.00;35.00;;;;;22.16;46.48;101007.06;112159;1264;19744;-70
2023/06/08 04:02:44;;;;;;;;;40.00;36.50;;;;;22.11;46.68;101008.18;112107;1263;18636;-71
2023/06/08 04:05:13;;;;;;;;;35.50;32.00;;;;;22.12;46.74;101002.92;112141;1248;20005;-71
2023/06/08 04:07:40;;;;;;;;;34.00;34.00;;;;;21.99;47.15;101003.83;112127;1248;20752;-71
2023/06/08 04:10:08;;;;;;;;;35.50;33.50;;;;;21.99;47.17;100998.58;112147;1264;18748;-71
2023/06/08 04:12:35;;;;;;;;;34.00;30.00;;;;;22.13;47.05;101001.02;112153;1248;20250;-71
2023/06/08 04:15:03;;;;;;;;;38.00;34.50;;;;;22.22;46.79;101005.27;112138;1263;19716;-71
2023/06/08 04:17:30;;;;;;;;;36.00;33.67;;;;;22.27;46.65;101003.86;112130;1263;18577;-71
2023/06/08 04:19:58;;;;;;;;;41.50;37.50;;;;;22.24;46.80;101005.90;112112;1264;21232;-71
2023/06/08 04:22:27;;;;;;;;;40.50;35.00;;;;;22.06;47.15;101005.48;112134;1248;20753;-71
2023/06/08 04:24:54;;;;;;;;;42.00;40.50;;;;;22.03;47.59;101005.80;112132;1251;20006;-71
2023/06/08 04:27:24;;;;;;;;;36.00;35.00;;;;;21.96;47.74;101007.62;112158;1264;19060;-71
2023/06/08 04:29:52;;;;;;;;;37.00;34.00;;;;;22.11;47.46;101012.86;112168;1263;19597;-71
2023/06/08 04:32:19;;;;;;;;;33.00;30.50;;;;;22.13;47.44;101010.11;112140;1264;18523;-72
2023/06/08 04:34:47;;;;;;;;;35.00;34.00;;;;;22.14;47.46;101009.67;112156;1248;18713;-71
2023/06/08 04:37:15;;;;;;;;;41.00;39.50;;;;;22.18;47.28;101011.16;112142;1264;21039;-71
2023/06/08 04:39:42;;;;;;;;;36.00;33.00;;;;;22.14;47.35;101013.44;112137;1251;20356;-72
2023/06/08 04:42:09;;;;;;;;;37.50;31.50;;;;;22.15;47.55;101013.70;112171;1248;20079;-72
2023/06/08 04:44:38;;;;;;;;;38.00;37.00;;;;;22.04;47.71;101010.01;112154;1263;19659;-71
2023/06/08 04:47:07;;;;;;;;;39.00;35.00;;;;;22.06;47.85;101010.48;112151;1264;19843;-71
2023/06/08 04:49:35;;;;;;;;;42.00;41.00;;;;;21.95;48.08;101007.43;112033;1264;18921;-71
2023/06/08 04:52:02;;;;;;;;;39.00;36.00;;;;;21.80;48.41;101010.46;112138;1263;19627;-71
2023/06/08 04:54:29;;;;;;;;;35.33;30.67;;;;;21.70;49.01;101011.23;112155;1264;19998;-69
2023/06/08 04:56:58;;;;;;;;;35.50;34.00;;;;;21.76;48.83;101012.18;112168;1264;18720;-70
2023/06/08 04:59:26;;;;;;;;;41.00;36.00;;;;;21.79;48.97;101012.73;112160;1248;20894;-70
2023/06/08 05:01:53;;;;;;;;;39.00;37.50;;;;;21.82;49.18;101010.95;112114;1263;20008;-72
2023/06/08 05:04:21;;;;;;;;;44.00;40.50;;;;;21.79;49.19;101007.44;112153;1264;18657;-72
2023/06/08 05:06:48;;;;;;;;;44.00;39.33;;;;;21.66;49.43;101009.58;112179;1263;21810;-72
2023/06/08 05:09:16;;;;;;;;;42.00;39.00;;;;;21.57;49.65;101008.92;112173;1250;19892;-72
2023/06/08 05:11:43;;;;;;;;;39.00;37.00;;;;;21.53;49.91;101005.42;112170;1248;21679;-76
2023/06/08 05:14:11;;;;;;;;;38.50;35.50;;;;;21.64;50.02;101007.59;112152;1248;20750;-72
2023/06/08 05:16:38;;;;;;;;;40.00;37.00;;;;;21.78;49.65;101007.82;112114;1248;21238;-71
2023/06/08 05:19:07;;;;;;;;;40.50;38.00;;;;;21.85;49.59;101014.20;112143;1263;21268;-71
2023/06/08 05:21:36;;;;;;;;;37.33;33.00;;;;;21.83;49.62;101013.93;112157;1248;20765;-71
2023/06/08 05:24:04;;;;;;;;;33.00;32.50;;;;;21.84;49.57;101016.01;112129;1263;18759;-71
2023/06/08 05:26:31;;;;;;;;;37.00;36.00;;;;;21.87;49.68;101015.19;112120;1248;20148;-71
2023/06/08 05:28:58;;;;;;;;;37.00;34.50;;;;;21.90;49.55;101019.31;112123;1248;20991;-70
2023/06/08 05:31:27;;;;;;;;;39.00;36.00;;;;;21.90;49.64;101022.77;112078;1264;18794;-71
2023/06/08 05:33:54;;;;;;;;;47.00;42.00;;;;;21.89;49.56;101023.98;112077;1265;20393;-71
2023/06/08 05:36:22;;;;;;;;;39.50;37.50;;;;;21.74;50.18;101022.45;112077;1250;20923;-71
2023/06/08 05:38:49;;;;;;;;;42.00;37.50;;;;;21.66;50.30;101021.20;112067;1257;20320;-71
2023/06/08 05:41:16;;;;;;;;;45.00;40.00;;;;;21.69;50.59;101021.60;112048;1264;18805;-71
2023/06/08 05:43:44;;;;;;;;;42.67;39.00;;;;;21.67;50.55;101022.02;112072;1249;19338;-71
2023/06/08 05:46:11;;;;;;;;;38.00;36.00;;;;;21.75;50.61;101018.65;112067;1265;19910;-70
2023/06/08 05:48:39;;;;;;;;;39.00;38.00;;;;;21.92;50.51;101015.84;112080;1265;18906;-71
2023/06/08 05:51:06;;;;;;;;;49.50;38.50;;;;;21.95;50.78;101018.05;112067;1250;21899;-71
2023/06/08 05:53:36;;;;;;;;;36.00;33.00;;;;;22.01;50.66;101023.13;112059;1257;18921;-72
2023/06/08 05:56:03;;;;;;;;;38.50;37.00;;;;;22.23;50.17;101023.71;112066;1264;20067;-72
2023/06/08 05:58:31;;;;;;;;;37.00;36.00;;;;;22.23;50.08;101020.34;112103;1250;20768;-72
2023/06/08 06:00:59;;;;;;;;;37.00;35.00;;;;;22.18;50.09;101024.47;112047;1264;18546;-72
2023/06/08 06:03:26;;;;;;;;;42.00;39.00;;;;;22.15;50.27;101019.68;112078;1264;21284;-71
2023/06/08 06:05:54;;;;;;;;;39.50;37.50;;;;;22.18;50.43;101019.77;112086;1264;19228;-71
2023/06/08 06:08:21;;;;;;;;;45.00;42.00;;;;;22.25;50.51;101019.74;112105;1265;18587;-71
2023/06/08 06:10:49;;;;;;;;;43.00;40.00;;;;;22.23;50.86;101020.38;112062;1249;21308;-71
2023/06/08 06:13:16;;;;;;;;;34.00;33.00;;;;;22.19;50.92;101019.75;112014;1260;19509;-70
2023/06/08 06:15:43;;;;;;;;;45.00;41.00;;;;;22.31;50.90;101019.30;112051;1264;18617;-71
2023/06/08 06:18:11;;;;;;;;;38.50;37.50;;;;;22.42;50.65;101017.77;112042;1264;21449;-71
2023/06/08 06:20:38;;;;;;;;;41.33;35.33;;;;;22.41;50.84;101020.09;112087;1265;19348;-71
2023/06/08 06:23:06;;;;;;;;;37.33;35.00;;;;;22.48;50.58;101019.94;112080;1249;18606;-71
2023/06/08 06:25:35;;;;;;;;;38.00;34.00;;;;;22.47;50.63;101022.65;112082;1264;19724;-71
2023/06/08 06:28:02;;;;;;;;;38.00;32.00;;;;;22.49;50.48;101021.20;112071;1250;20738;-71
2023/06/08 06:30:30;;;;;;;;;38.50;36.50;;;;;22.55;50.40;101021.13;112085;1250;20402;-71
2023/06/08 06:32:57;;;;;;;;;37.00;34.00;;;;;22.66;50.16;101025.51;112091;1249;20080;-72
2023/06/08 06:35:25;;;;;;;;;28.67;28.00;;;;;22.76;49.74;101018.64;112127;1263;20729;-72
2023/06/08 06:37:53;;;;;;;;;37.00;35.00;;;;;22.85;49.81;101019.77;112130;1263;19193;-73
2023/06/08 06:40:20;;;;;;;;;33.00;33.00;;;;;22.81;49.94;101023.69;112145;1248;20622;-72
2023/06/08 06:42:48;;;;;;;;;38.00;36.00;;;;;22.69;49.73;101022.21;112133;1263;20639;-72
2023/06/08 06:45:15;;;;;;;;;38.00;36.00;;;;;22.78;49.72;101020.40;112142;1263;18567;-72
2023/06/08 06:47:43;;;;;;;;;40.00;37.00;;;;;22.89;49.88;101020.98;112156;1263;18907;-76
2023/06/08 06:50:10;;;;;;;;;33.00;31.00;;;;;22.98;49.69;101018.95;112149;1248;19406;-76
2023/06/08 06:52:37;;;;;;;;;36.00;35.00;;;;;23.04;49.53;101021.54;112139;1264;18609;-76
2023/06/08 06:55:05;;;;;;;;;36.00;31.50;;;;;23.11;49.29;101021.39;112141;1264;20019;-77
2023/06/08 06:57:32;;;;;;;;;28.00;28.00;;;;;23.18;49.25;101021.59;112118;1256;21000;-76
2023/06/08 07:00:00;;;;;;;;;33.00;32.00;;;;;23.25;49.10;101019.30;112143;1256;18830;-77
2023/06/08 07:02:28;;;;;;;;;30.00;29.00;;;;;23.37;49.06;101021.46;112129;1263;18785;-76
2023/06/08 07:04:58;;;;;;;;;28.00;28.00;;;;;23.36;48.87;101021.96;112135;1263;20818;-75
2023/06/08 07:07:26;;;;;;;;;35.50;29.00;;;;;23.43;48.66;101021.73;112138;1264;18577;-75
2023/06/08 07:09:55;;;;;;;;;30.67;26.67;;;;;23.47;48.41;101017.41;112123;1264;20165;-72
2023/06/08 07:12:23;;;;;;;;;30.00;29.00;;;;;23.51;48.38;101021.04;112135;1264;19388;-75
2023/06/08 07:14:51;;;;;;;;;29.00;27.50;;;;;23.50;48.27;101017.83;112160;1264;18613;-74
2023/06/08 07:17:18;;;;;;;;;26.00;24.50;;;;;23.55;48.14;101017.52;112137;1263;19005;-74
2023/06/08 07:19:47;;;;;;;;;25.50;25.50;;;;;23.59;47.97;101015.09;112119;1263;19436;-74
2023/06/08 07:22:14;;;;;;;;;30.00;29.00;;;;;23.68;47.97;101016.97;112117;1263;18591;-75
2023/06/08 07:24:42;;;;;;;;;27.00;26.00;;;;;23.77;47.66;101017.92;112142;1256;18718;-74
2023/06/08 07:27:10;;;;;;;;;26.33;26.33;;;;;23.78;47.78;101014.33;112120;1263;19445;-74
2023/06/08 07:29:37;;;;;;;;;31.00;30.00;;;;;23.89;47.69;101013.96;112144;1263;18589;-72
2023/06/08 07:32:05;;;;;;;;;26.67;26.00;;;;;23.90;47.53;101016.05;112140;1247;20014;-71
2023/06/08 07:34:32;;;;;;;;;30.50;26.50;;;;;23.85;47.51;101013.92;112140;1263;21791;-76
2023/06/08 07:37:00;;;;;;;;;29.00;26.00;;;;;23.83;47.19;101012.05;112170;1264;18574;-76
2023/06/08 07:39:28;;;;;;;;;23.00;23.00;;;;;23.83;47.12;101014.27;112156;1263;20042;-76
2023/06/08 07:41:55;;;;;;;;;23.67;23.33;;;;;23.92;46.88;101010.34;112157;1264;19364;-76
2023/06/08 07:44:23;;;;;;;;;27.00;23.00;;;;;24.01;46.65;101009.58;112166;1248;18935;-76
2023/06/08 07:46:50;;;;;;;;;26.00;24.00;;;;;24.03;46.22;101007.11;112157;1264;18630;-76
2023/06/08 07:49:18;;;;;;;;;19.50;19.50;;;;;24.05;45.94;101005.40;112153;1247;20691;-76
2023/06/08 07:51:45;;;;;;;;;20.00;20.00;;;;;24.11;45.64;101002.52;112182;1263;18671;-76
2023/06/08 07:54:13;;;;;;;;;21.67;19.00;;;;;24.10;45.31;101004.79;112176;1264;18869;-76
2023/06/08 07:56:40;;;;;;;;;23.00;21.00;;;;;24.19;45.36;101001.75;112133;1264;19356;-76
2023/06/08 07:59:08;;;;;;;;;;;;;;;24.25;45.07;101002.02;112183;1257;18600;-76
2023/06/08 08:01:36;;;;;;;;;20.00;19.00;;;;;24.35;44.90;101003.88;112152;1264;18546;-76
2023/06/08 08:04:03;;;;;;;;;20.00;19.00;;;;;24.39;44.69;101002.31;112176;1263;19680;-77
2023/06/08 08:06:31;;;;;;;;;18.00;18.00;;;;;24.22;44.76;101002.70;112160;1247;18560;-72
2023/06/08 08:08:58;;;;;;;;;20.00;17.00;;;;;24.17;45.08;101002.39;112137;1264;18880;-75
2023/06/08 08:11:26;;;;;;;;;20.33;18.67;;;;;24.29;44.64;101003.50;112161;1248;21091;-76
2023/06/08 08:13:53;;;;;;;;;18.00;17.00;;;;;24.28;44.66;101000.73;112128;1256;19911;-72
2023/06/08 08:16:21;;;;;;;;;18.50;16.50;;;;;24.21;44.64;100999.78;112140;1248;20482;-74
2023/06/08 08:18:48;;;;;;;;;17.50;17.00;;;;;24.36;44.79;101001.02;112130;1264;20736;-72
2023/06/08 08:21:16;;;;;;;;;19.50;19.50;;;;;24.43;44.59;100997.04;112236;1263;19965;-71
2023/06/08 08:23:43;;;;;;;;;20.00;16.00;;;;;24.45;44.42;101002.80;112143;1263;18961;-74
2023/06/08 08:26:10;;;;;;;;;20.00;18.00;;;;;24.40;44.21;101001.44;112151;1263;19335;-77
2023/06/08 08:28:41;;;;;;;;;19.50;17.50;;;;;24.50;43.90;100994.64;112170;1257;18945;-71
2023/06/08 08:31:08;;;;;;;;;17.00;17.00;;;;;24.44;44.03;100993.19;112165;1264;20272;-74
2023/06/08 08:33:36;;;;;;;;;19.67;19.67;;;;;24.44;43.73;100992.34;112163;1264;19421;-75
2023/06/08 08:36:03;;;;;;;;;21.00;20.00;;;;;24.56;43.16;100992.22;112172;1256;18633;-76
2023/06/08 08:38:31;;;;;;;;;21.00;20.00;;;;;24.53;42.95;100990.95;112173;1264;19985;-75
2023/06/08 08:41:01;;;;;;;;;20.00;17.00;;;;;24.64;42.82;100994.30;112157;1264;20824;-75
2023/06/08 08:43:29;;;;;;;;;20.00;20.00;;;;;24.91;41.62;100993.80;112128;1263;19944;-74
2023/06/08 08:45:57;;;;;;;;;21.00;20.50;;;;;24.99;41.05;100987.54;112160;1263;18743;-75
2023/06/08 08:48:25;;;;;;;;;18.00;18.00;;;;;25.01;41.05;100985.85;112162;1263;19553;-75
2023/06/08 08:50:53;;;;;;;;;21.00;20.00;;;;;24.95;40.88;100985.67;112171;1256;18595;-74
2023/06/08 08:53:20;;;;;;;;;18.00;17.00;;;;;24.77;41.10;100990.63;112172;1263;19048;-80
2023/06/08 08:55:48;;;;;;;;;21.00;20.00;;;;;24.65;41.31;100989.77;112147;1264;19544;-77
2023/06/08 08:58:18;;;;;;;;;18.00;18.00;;;;;24.70;41.21;100987.87;112173;1264;18587;-76
2023/06/08 09:00:48;;;;;;;;;22.00;21.00;;;;;24.75;41.55;100988.46;112153;1248;19989;-78
2023/06/08 09:03:16;;;;;;;;;21.33;17.33;;;;;24.89;40.81;100987.56;112138;1263;19506;-76
2023/06/08 09:05:44;;;;;;;;;21.00;20.00;;;;;25.06;39.46;100984.47;112137;1263;18604;-78
2023/06/08 09:08:11;;;;;;;;;22.50;21.50;;;;;25.01;39.61;100983.58;112144;1264;18884;-78
2023/06/08 09:10:39;;;;;;;;;33.00;30.00;;;;;25.02;39.82;100982.09;112154;1257;19544;-78
2023/06/08 09:13:06;;;;;;;;;90.00;66.33;;;;;24.90;40.53;100979.95;112138;1264;18912;-77
2023/06/08 09:15:36;;;;;;;;;103.00;77.00;;;;;25.02;40.78;100976.46;112146;1263;18886;-78
2023/06/08 09:18:04;;;;;;;;;84.00;62.00;;;;;24.96;41.30;100975.56;112150;1248;20794;-77
2023/06/08 09:20:32;;;;;;;;;75.00;54.50;;;;;25.12;40.86;100975.67;112166;1248;20493;-78
2023/06/08 09:22:59;;;;;;;;;74.00;53.50;;;;;25.08;40.82;100973.98;112150;1264;20051;-77
2023/06/08 09:25:27;;;;;;;;;64.67;49.67;;;;;24.99;41.38;100973.30;112172;1263;19354;-76
2023/06/08 09:27:55;;;;;;;;;69.00;52.00;;;;;24.99;41.61;100967.35;112138;1264;18571;-75
2023/06/08 09:30:23;;;;;;;;;62.50;49.50;;;;;24.91;42.59;100965.98;112145;1264;18924;-75
2023/06/08 09:32:51;;;;;;;;;51.50;44.00;;;;;24.96;42.88;100962.95;112133;1248;20926;-76
2023/06/08 09:35:19;;;;;;;;;44.00;37.67;;;;;24.92;43.51;100964.52;112123;1263;19953;-77
2023/06/08 09:37:49;;;;;;;;;32.50;29.00;;;;;25.09;42.08;100962.73;112155;1264;18933;-78
2023/06/08 09:40:17;;;;;;;;;25.00;24.00;;;;;25.10;40.65;100960.77;112179;1256;19339;-77
2023/06/08 09:42:44;;;;;;;;;22.33;22.00;;;;;25.10;39.97;100957.80;112153;1263;18792;-79
2023/06/08 09:45:12;;;;;;;;;24.00;22.00;;;;;25.17;39.89;100955.78;112126;1263;18770;-76
2023/06/08 09:47:40;;;;;;;;;22.00;22.00;;;;;25.30;39.95;100957.17;112128;1264;19244;-76
2023/06/08 09:50:07;;;;;;;;;24.00;22.00;;;;;25.50;39.92;100961.51;112151;1248;20226;-76
2023/06/08 09:52:35;;;;;;;;;26.00;22.00;;;;;25.56;39.82;100961.11;112137;1247;20261;-76
2023/06/08 09:55:03;;;;;;;;;21.00;21.00;;;;;25.56;39.88;100959.05;112145;1248;20863;-76
2023/06/08 09:57:30;;;;;;;;;22.00;22.00;;;;;25.48;39.91;100963.81;112131;1264;20303;-77
2023/06/08 09:59:58;;;;;;;;;22.00;21.00;;;;;25.47;39.67;100962.98;112143;1247;21297;-76
2023/06/08 10:02:25;;;;;;;;;22.00;21.00;;;;;25.42;39.60;100966.45;112142;1264;20540;-76
2023/06/08 10:04:53;;;;;;;;;21.00;21.00;;;;;25.38;39.14;100964.90;112249;1256;18737;-76
2023/06/08 10:07:23;;;;;;;;;22.00;22.00;;;;;25.31;38.76;100959.75;112265;1264;18702;-76
2023/06/08 10:09:50;;;;;;;;;25.00;22.00;;;;;25.35;39.05;100953.77;112244;1263;20721;-76
2023/06/08 10:12:18;;;;;;;;;22.50;22.00;;;;;25.41;39.12;100954.66;112270;1263;18599;-75
2023/06/08 10:14:45;;;;;;;;;19.00;18.00;;;;;25.39;38.92;100953.23;112194;1256;18590;-77
2023/06/08 10:17:15;;;;;;;;;25.00;22.00;;;;;25.36;38.82;100956.23;112175;1264;21332;-77
2023/06/08 10:19:42;;;;;;;;;19.00;19.00;;;;;25.36;38.67;100951.93;112137;1264;20163;-76
2023/06/08 10:22:09;;;;;;;;;22.00;19.00;;;;;25.29;38.85;100949.95;112183;1263;20179;-76
2023/06/08 10:24:37;;;;;;;;;19.00;18.00;;;;;25.25;39.26;100948.70;112145;1263;19567;-76
2023/06/08 10:27:05;;;;;;;;;20.00;20.00;;;;;25.36;39.38;100951.98;112140;1263;18815;-76
2023/06/08 10:29:32;;;;;;;;;21.00;19.00;;;;;25.39;39.26;100951.95;112167;1264;20376;-76
2023/06/08 10:32:00;;;;;;;;;21.00;20.00;;;;;25.30;39.30;100949.02;112151;1256;19565;-77
2023/06/08 10:34:27;;;;;;;;;21.00;19.00;;;;;25.30;39.20;100941.85;112152;1264;18830;-76
2023/06/08 10:36:54;;;;;;;;;25.00;23.00;;;;;25.46;38.91;100948.02;112166;1264;18741;-76
2023/06/08 10:39:23;;;;;;;;;23.00;22.00;;;;;25.52;38.54;100947.76;112163;1263;19541;-76
2023/06/08 10:41:50;;;;;;;;;20.00;19.00;;;;;25.42;38.89;100949.95;112150;1247;19961;-76
2023/06/08 10:44:17;;;;;;;;;19.33;17.67;;;;;25.49;38.93;100950.02;112143;1263;18931;-76
2023/06/08 10:46:45;;;;;;;;;26.00;22.00;;;;;25.58;38.34;100948.13;112126;1263;19513;-76
2023/06/08 10:49:12;;;;;;;;;22.00;21.00;;;;;25.52;38.11;100941.85;112166;1248;20458;-76
2023/06/08 10:51:40;;;;;;;;;18.00;18.00;;;;;25.58;37.72;100942.92;112153;1263;18843;-76
2023/06/08 10:54:09;;;;;;;;;20.00;20.00;;;;;25.53;37.60;100938.09;112166;1263;19403;-76
2023/06/08 10:56:36;;;;;;;;;19.00;19.00;;;;;25.58;37.70;100937.10;112155;1248;20277;-76
2023/06/08 10:59:04;;;;;;;;;22.50;22.00;;;;;25.73;37.30;100934.34;112146;1263;18680;-76
2023/06/08 11:01:32;;;;;;;;;19.50;18.00;;;;;25.84;36.70;100935.21;112175;1257;19414;-76
2023/06/08 11:04:00;;;;;;;;;18.00;18.00;;;;;25.73;36.51;100933.34;112136;1263;18911;-76